Relatrios de METAR prximas

 

LPAR - Alverca, Portugal
Distance from station: S 38km
Actualizado: 28/06/2022 17:00
NO Actual
Cu Limpo
Cu Limpo
 Vento de NNO
Vento: NNO 24 km/h
Temperatura: 25°C
Ponto de Orvalho: 10°C
Humidade: 39%
Barmetro: 1018 hPa
Resumo: Cu Limpo
Visibilidade: greater than 10 km
2022/06/28 16:00 LPAR 281600Z 34013KT 310V020 CAVOK 25/10 Q1018
LPPT - Lisbon/Portela, Portugal
Distance from station: S 52km
Actualizado: 29/06/2022 04:00
Muito Nublado
Muito Nublado
 Vento de NNO
Vento: NNO 17 km/h
Temperatura: 17°C
Ponto de Orvalho: 13°C
Humidade: 77%
Barmetro: 1019 hPa
Nuvens: Muito Nublado
Visibilidade: 10 km
Cloud details: Muito Nublado 549 m
2022/06/29 03:00 LPPT 290300Z 34009KT 9999 BKN018 17/13 Q1019
 
LPST - Sintra/Granja (a, Portugal
Distance from station: SSO 53km
Actualizado: 28/06/2022 17:00
NO Actual
Few Clouds
Few Clouds
 Vento de NNO
Vento: NNO 28 km/h
Temperatura: 21°C
Ponto de Orvalho: 11°C
Humidade: 53%
Barmetro: 1020 hPa
Nuvens: Few Clouds
Visibilidade: 10 km
Cloud details: Few Clouds 610 m
2022/06/28 16:00 LPST 281600Z 34015KT 300V360 9999 FEW020 21/11 Q1020
LPMT - Montijo (por-Afb, Portugal
Distance from station: S 59km
Actualizado: 29/06/2022 04:00
Parc. Nublado
Parc. Nublado
 Vento de N
Vento: N 17 km/h
Temperatura: 18°C
Ponto de Orvalho: 13°C
Humidade: 73%
Barmetro: 1018 hPa
Nuvens: Parc. Nublado
Visibilidade: 10 km
Cloud details: Parc. Nublado 610 m
2022/06/29 03:00 LPMT 290300Z 35009KT 9999 SCT020 18/13 Q1018
 
LPCS - Cascais, Portugal
Distance from station: SSO 63km
Actualizado: 28/06/2022 21:00
NO Actual
Few Clouds
Few Clouds
 Vento de N
Vento: N 43 km/h
Temperatura: 18°C
Ponto de Orvalho: 13°C
Humidade: 73%
Barmetro: 1019 hPa
Nuvens: Few Clouds
Visibilidade: 10 km
Cloud details: Few Clouds 549 m
2022/06/28 20:00 LPCS 282000Z 35023KT 9999 FEW018 18/13 Q1019
LPMR - Monte Real(Por-A, Portugal
Distance from station: N 67km
Actualizado: 29/06/2022 04:00
Muito Nublado
Muito Nublado
 Vento de NNO
Vento: NNO 15 km/h
Temperatura: 17°C
Ponto de Orvalho: 15°C
Humidade: 88%
Barmetro: 1019 hPa
Nuvens: Muito Nublado
Visibilidade: 10 km
Cloud details: Parc. Nublado 305 m
Muito Nublado 671 m
2022/06/29 03:00 LPMR 290300Z 34008KT 9999 SCT010 BKN022 17/15 Q1019